• Join FlightAware (Why Join?)
  • Login
  • US Flag 
09:48PM EDT


 

Airport Tracker/Info


-or-


 

Live Flight TrackerFlight Track Log ✈ EJA815 ✈ 22-May-2012 ✈ KTEB - KIAD

Flight Track Log - Related Links

Times and Time Zones

All times are in EDT time to prevent confusion due to time zone crossing. See the EJA815 flight status page for this flight to view local times or setup timezone preferences in your user account.

Time Position Orientation Groundspeed Altitude Reporting Facility
EDT Latitude Longitude Course Direction KTS MPH feet Rate Location/Type
12:43AM 40.8667 -74.0333 360° North 182 209 1,100  Level New York TRACON
12:44AM 40.9167 -74.0333 255° West 208 239 2,700 2,100 Climbing New York TRACON
12:45AM 40.9000 -74.1167 255° West 225 259 5,100 2,640 Climbing New York TRACON
12:46AM 40.8833 -74.2000 251° West 260 299 8,000 2,640 Climbing New York TRACON
12:48AM 40.8353 -74.3886 243° Southwest 294 338 12,800 2,460 Climbing New York Center
12:49AM 40.7992 -74.4828 245° Southwest 316 364 15,100 2,100 Climbing New York Center
12:50AM 40.7533 -74.6117 244° Southwest 340 391 17,000 1,860 Climbing New York Center
12:51AM 40.7122 -74.7217 245° Southwest 368 423 18,800 1,980 Climbing New York Center
12:52AM 40.6639 -74.8556 245° Southwest 374 430 21,000 1,560 Climbing New York Center
12:53AM 40.6175 -74.9867 244° Southwest 379 436 22,000 480 Climbing New York Center
12:54AM 40.5669 -75.1203 243° Southwest 403 464 22,000  Level New York Center
12:55AM 40.5161 -75.2536 243° Southwest 409 471 22,000  Level New York Center
12:56AM 40.4675 -75.3786 244° Southwest 423 487 22,000  Level New York Center
12:57AM 40.4092 -75.5328 243° Southwest 428 493 22,000  Level New York Center
12:58AM 40.3628 -75.6522 244° Southwest 428 493 22,000  Level New York Center
12:59AM 40.3064 -75.8033 243° Southwest 423 487 22,000  Level New York Center
01:00AM 40.2572 -75.9278 243° Southwest 423 487 22,000  Level New York Center
01:01AM 40.2006 -76.0756 244° Southwest 418 481 22,000  Level New York Center
01:02AM 40.1533 -76.1997 244° Southwest 418 481 22,000  Level New York Center
01:03AM 40.1031 -76.3369 240° Southwest 425 489 22,000  Level New York Center
01:05AM 40.0000 -76.5667 234° Southwest 423 487 22,000 -660 Level Potomac TRACON
01:06AM 39.9167 -76.7167 244° Southwest 419 482 20,100 -1,980 Descending Potomac TRACON
01:07AM 39.8667 -76.8500 233° Southwest 410 472 17,900 -2,160 Descending Potomac TRACON
01:08AM 39.8000 -76.9667 241° Southwest 403 464 15,800 -2,040 Descending Potomac TRACON
01:09AM 39.7500 -77.0833 241° Southwest 395 455 13,900 -1,860 Descending Potomac TRACON
01:10AM 39.7000 -77.2000 232° Southwest 378 435 12,100 -1,620 Descending Potomac TRACON
01:11AM 39.6500 -77.2833 218° Southwest 332 382 10,700 -1,260 Descending Potomac TRACON
01:12AM 39.6000 -77.3333 189° South 278 320 9,600 -1,140 Descending Potomac TRACON
01:13AM 39.5167 -77.3500 201° Southwest 262 302 8,500 -1,140 Descending Potomac TRACON
01:14AM 39.4500 -77.3833 187° South 270 311 7,400 -1,380 Descending Potomac TRACON
01:15AM 39.3500 -77.4000 191° South 286 329 5,800 -1,560 Descending Potomac TRACON
01:16AM 39.2833 -77.4167 189° South 277 319 4,300 -1,380 Descending Potomac TRACON
01:17AM 39.2000 -77.4333 180° South 264 304 3,100 -840 Descending Potomac TRACON
01:18AM 39.1667 -77.4333 180° South 249 287 3,000 -120 Descending Potomac TRACON
01:19AM 39.1000 -77.4333 180° South 230 265 3,000 -480 Level Potomac TRACON
01:20AM 39.0500 -77.4333 180° South 211 243 2,100 -900 Descending Potomac TRACON
01:21AM 39.0000 -77.4333 191° South 177 204 1,200 -900 Descending Potomac TRACON
01:28AM 38.9333 -77.4500 331° Northwest  Level FlightAware Approximate
01:29AM 39.0165 -77.5087 151° Southeast  Level Estimated
01:30AM 38.9333 -77.4500 331° Northwest  Level FlightAware Approximate
01:31AM 39.0165 -77.5087 331° Northwest  Level Estimated